CheckWX is a tool to help pilots better visualize weather data.  It is not intended as a substitute for an official pre-flight weather briefing.

16:10:26 UTC

KMRC METAR
Maury County Airport
Columbia/Mount Pleasant, Tennessee, USA
Current

35 mins ago

KMRC 261535Z AUTO 25008G16KT 230V290 10SM CLR 30/18 A3013 RMK A01
Observed
May-26 @ 15:35 UTC
Wind
  • 250° at 8 KTS
  • Gusting to 16 KTS
Visibility
10 SM
Flight Rules
VFR
Cloud Levels
  • Clear skies
Temperature
30°C / 86°F
Dewpoint
18°C / 64°F
Heat Index
31°C / 88°F
Humidity
49%
Altimeter
30.13" Hg
Pressure
1020.32 hPa
Previous

55 mins ago

KMRC 261515Z AUTO 22015KT 10SM CLR 30/19 A3013 RMK A01
Observed
May-26 @ 15:15 UTC
Wind
  • 220° at 15 KTS
Visibility
10 SM
Flight Rules
VFR
Cloud Levels
  • Clear skies
Temperature
30°C / 86°F
Dewpoint
19°C / 66°F
Heat Index
31°C / 88°F
Humidity
52%
Altimeter
30.13" Hg
Pressure
1020.32 hPa
Previous

1 hour ago

KMRC 261455Z AUTO 23011KT 10SM CLR 29/19 A3014 RMK A01
Observed
May-26 @ 14:55 UTC
Wind
  • 230° at 11 KTS
Visibility
10 SM
Flight Rules
VFR
Cloud Levels
  • Clear skies
Temperature
29°C / 84°F
Dewpoint
19°C / 66°F
Heat Index
30°C / 86°F
Humidity
55%
Altimeter
30.14" Hg
Pressure
1020.62 hPa